Time;durP1;ratioP1;P1;durP2;ratioP2;P2;SDS_P1;SDS_P2;PMS_P1;PMS_P2;Temp;Humidity;BMP_temperature;BMP_pressure;BME280_temperature;BME280_humidity;BME280_pressure;Samples;Min_cycle;Max_cycle;Signal;HPM_P1;HPM_P2
2022/01/17 00:00:34;;;;;;;;;;;7.00;77.90;;;;;;5073120;28;19916;-65
2022/01/17 00:03:00;;;;;;;;;;;7.00;78.60;;;;;;5072946;28;19915;-66
2022/01/17 00:05:26;;;;;;;;;;;7.00;78.70;;;;;;5071545;28;19912;-65
2022/01/17 00:07:52;;;;;;;;;;;7.10;78.60;;;;;;5073417;28;20007;-66
2022/01/17 00:10:17;;;;;;;;;;;7.10;78.50;;;;;;5076317;28;19969;-66
2022/01/17 00:12:47;;;;;;;;;;;7.20;78.70;;;;;;5076733;28;19969;-65
2022/01/17 00:15:28;;;;;;;;;;;7.20;78.30;;;;;;5076214;28;19916;-65
2022/01/17 00:19:02;;;;;;;;;;;7.20;78.50;;;;;;5076592;28;19909;-67
2022/01/17 00:20:47;;;;;;;;;;;7.10;78.50;;;;;;5073297;28;20284;-66
2022/01/17 00:23:14;;;;;;;;;;;7.10;78.30;;;;;;5076289;28;20348;-64
2022/01/17 00:25:40;;;;;;;;;;;7.20;78.80;;;;;;5076207;28;19912;-65
2022/01/17 00:28:05;;;;;;;;;;;7.20;77.80;;;;;;5076487;28;19915;-66
2022/01/17 00:30:31;;;;;;;;;;;7.10;77.90;;;;;;5076126;28;20364;-65
2022/01/17 00:32:56;;;;;;;;;;;7.20;78.30;;;;;;5076142;28;19956;-65
2022/01/17 00:35:24;;;;;;;;;;;7.40;77.00;;;;;;5075924;28;19916;-64
2022/01/17 00:37:49;;;;;;;;;;;7.40;76.50;;;;;;5076226;28;19908;-64
2022/01/17 00:40:15;;;;;;;;;;;7.60;76.30;;;;;;5076212;28;20314;-65
2022/01/17 00:42:42;;;;;;;;;;;7.70;75.30;;;;;;5075851;28;19954;-65
2022/01/17 00:45:08;;;;;;;;;;;7.90;74.50;;;;;;5076250;28;20005;-65
2022/01/17 00:47:35;;;;;;;;;;;7.80;74.70;;;;;;5076031;28;19908;-65
2022/01/17 00:50:01;;;;;;;;;;;7.80;74.80;;;;;;5075826;28;20065;-64
2022/01/17 00:52:26;;;;;;;;;;;7.70;75.00;;;;;;5075905;28;19991;-65
2022/01/17 00:54:52;;;;;;;;;;;7.70;75.30;;;;;;5075628;28;19915;-67
2022/01/17 00:57:17;;;;;;;;;;;7.80;74.90;;;;;;5074626;28;19916;-65
2022/01/17 00:59:43;;;;;;;;;;;7.90;74.60;;;;;;5076130;28;19915;-65
2022/01/17 01:02:08;;;;;;;;;;;8.00;74.20;;;;;;5075488;28;19908;-64
2022/01/17 01:04:34;;;;;;;;;;;7.90;74.30;;;;;;5075725;28;19948;-70
2022/01/17 01:06:59;;;;;;;;;;;7.80;75.10;;;;;;5076894;28;19919;-65
2022/01/17 01:09:29;;;;;;;;;;;7.90;75.00;;;;;;5077472;28;20257;-66
2022/01/17 01:11:54;;;;;;;;;;;7.90;74.30;;;;;;5075658;28;20268;-66
2022/01/17 01:14:20;;;;;;;;;;;8.10;73.30;;;;;;5075292;28;19909;-65
2022/01/17 01:16:45;;;;;;;;;;;8.20;72.60;;;;;;5075486;28;20292;-65
2022/01/17 01:27:49;;;;;;;;;;;8.00;75.00;;;;;;5076430;28;19915;-65
2022/01/17 01:30:17;;;;;;;;;;;7.90;75.70;;;;;;5075074;28;19935;-65
2022/01/17 01:32:48;;;;;;;;;;;8.00;75.60;;;;;;5074848;28;19928;-66
2022/01/17 01:35:17;;;;;;;;;;;8.20;75.10;;;;;;5074895;28;19916;-66
2022/01/17 01:37:44;;;;;;;;;;;8.20;74.90;;;;;;5074697;28;19932;-65
2022/01/17 01:40:10;;;;;;;;;;;8.10;74.80;;;;;;5075017;28;19913;-65
2022/01/17 01:42:36;;;;;;;;;;;8.20;75.00;;;;;;5074799;28;19916;-66
2022/01/17 01:45:02;;;;;;;;;;;8.20;74.80;;;;;;5075117;28;19915;-66
2022/01/17 01:47:28;;;;;;;;;;;8.20;75.20;;;;;;5074809;28;19915;-65
2022/01/17 01:49:53;;;;;;;;;;;8.10;75.60;;;;;;5074715;28;20284;-65
2022/01/17 01:52:19;;;;;;;;;;;8.00;76.20;;;;;;5074672;28;19909;-65
2022/01/17 01:54:45;;;;;;;;;;;7.90;76.20;;;;;;5074370;28;19917;-64
2022/01/17 01:57:11;;;;;;;;;;;8.00;76.30;;;;;;5074577;28;19947;-65
2022/01/17 01:59:37;;;;;;;;;;;7.90;76.20;;;;;;5074745;28;19916;-67
2022/01/17 02:02:03;;;;;;;;;;;7.90;76.20;;;;;;5074439;28;20271;-65
2022/01/17 02:04:29;;;;;;;;;;;7.80;76.30;;;;;;5074576;28;19915;-64
2022/01/17 02:06:55;;;;;;;;;;;7.70;76.30;;;;;;5074408;28;19908;-64
2022/01/17 02:09:23;;;;;;;;;;;7.60;76.50;;;;;;5074267;28;20003;-65
2022/01/17 02:11:49;;;;;;;;;;;7.60;76.80;;;;;;5074386;28;19915;-65
2022/01/17 02:14:14;;;;;;;;;;;7.60;77.10;;;;;;5074019;28;19908;-66
2022/01/17 02:16:41;;;;;;;;;;;7.80;77.20;;;;;;5074118;28;19916;-65
2022/01/17 02:19:07;;;;;;;;;;;7.90;76.70;;;;;;5074134;28;19915;-65
2022/01/17 02:21:44;;;;;;;;;;;7.80;76.50;;;;;;5073745;28;20231;-65
2022/01/17 02:24:10;;;;;;;;;;;7.80;76.60;;;;;;5074098;28;19915;-65
2022/01/17 02:26:35;;;;;;;;;;;7.90;76.10;;;;;;5073901;28;20513;-64
2022/01/17 02:29:01;;;;;;;;;;;7.90;76.20;;;;;;5074078;28;19999;-65
2022/01/17 02:31:26;;;;;;;;;;;7.80;76.30;;;;;;5073084;28;19940;-65
2022/01/17 02:33:53;;;;;;;;;;;7.60;76.70;;;;;;5073826;28;19928;-65
2022/01/17 02:36:19;;;;;;;;;;;7.60;77.40;;;;;;5073828;28;19917;-64
2022/01/17 02:38:45;;;;;;;;;;;7.40;77.90;;;;;;5072520;28;19909;-64
2022/01/17 02:41:13;;;;;;;;;;;7.60;78.30;;;;;;5073857;28;19919;-64
2022/01/17 02:43:39;;;;;;;;;;;7.50;77.60;;;;;;5072189;28;19921;-65
2022/01/17 02:48:32;;;;;;;;;;;7.30;78.10;;;;;;5073743;28;19920;-65
2022/01/17 02:50:58;;;;;;;;;;;7.40;78.10;;;;;;5073299;28;20383;-65
2022/01/17 02:53:23;;;;;;;;;;;7.30;78.20;;;;;;5074401;28;19912;-65
2022/01/17 02:55:56;;;;;;;;;;;7.30;78.40;;;;;;5074572;28;19923;-65
2022/01/17 02:58:23;;;;;;;;;;;7.30;78.40;;;;;;5073381;28;19908;-65
2022/01/17 03:00:49;;;;;;;;;;;7.50;77.70;;;;;;5073531;28;20345;-65
2022/01/17 03:03:16;;;;;;;;;;;7.50;77.70;;;;;;5073240;28;19913;-65
2022/01/17 03:05:42;;;;;;;;;;;7.50;77.40;;;;;;5073453;28;19908;-64
2022/01/17 03:08:08;;;;;;;;;;;7.50;77.40;;;;;;5073504;28;19908;-66
2022/01/17 03:10:40;;;;;;;;;;;7.20;77.10;;;;;;5073443;28;19908;-64
2022/01/17 03:13:07;;;;;;;;;;;7.10;78.80;;;;;;5072047;28;19959;-65
2022/01/17 03:15:33;;;;;;;;;;;7.00;80.20;;;;;;5073128;28;19917;-66
2022/01/17 03:17:59;;;;;;;;;;;7.30;79.90;;;;;;5073138;28;19915;-65
2022/01/17 03:20:25;;;;;;;;;;;7.40;78.50;;;;;;5073143;28;19916;-66
2022/01/17 03:22:50;;;;;;;;;;;7.30;78.10;;;;;;5073356;28;19916;-65
2022/01/17 03:25:16;;;;;;;;;;;7.30;78.10;;;;;;5073188;28;19912;-64
2022/01/17 03:27:41;;;;;;;;;;;7.10;78.50;;;;;;5073141;28;19908;-66
2022/01/17 03:30:07;;;;;;;;;;;7.10;78.00;;;;;;5073289;28;19984;-65
2022/01/17 03:32:33;;;;;;;;;;;7.00;78.20;;;;;;5072643;28;20368;-64
2022/01/17 03:34:58;;;;;;;;;;;7.00;78.40;;;;;;5073040;28;19909;-65
2022/01/17 03:37:24;;;;;;;;;;;6.90;78.70;;;;;;5073175;28;19909;-64
2022/01/17 03:39:50;;;;;;;;;;;6.90;78.10;;;;;;5072947;28;19915;-64
2022/01/17 03:42:18;;;;;;;;;;;6.80;78.00;;;;;;5073159;28;19995;-65
2022/01/17 03:44:43;;;;;;;;;;;6.70;78.10;;;;;;5076669;28;19908;-65
2022/01/17 03:47:09;;;;;;;;;;;6.50;78.40;;;;;;5077131;28;20359;-66
2022/01/17 03:49:34;;;;;;;;;;;6.50;78.80;;;;;;5077174;28;19909;-65
2022/01/17 03:52:00;;;;;;;;;;;6.40;78.70;;;;;;5076888;28;19962;-66
2022/01/17 03:54:25;;;;;;;;;;;6.30;79.30;;;;;;5076997;28;19909;-65
2022/01/17 03:56:51;;;;;;;;;;;6.30;79.60;;;;;;5076960;28;19916;-64
2022/01/17 03:59:16;;;;;;;;;;;6.30;79.70;;;;;;5076971;28;19954;-64
2022/01/17 04:01:42;;;;;;;;;;;6.30;79.40;;;;;;5076754;28;20379;-64
2022/01/17 04:04:08;;;;;;;;;;;6.30;80.10;;;;;;5076581;28;19999;-65
2022/01/17 04:06:34;;;;;;;;;;;6.40;79.50;;;;;;5076861;28;19915;-66
2022/01/17 04:09:00;;;;;;;;;;;6.40;79.60;;;;;;5076761;28;19908;-65
2022/01/17 04:11:25;;;;;;;;;;;6.40;79.10;;;;;;5076343;28;19938;-66
2022/01/17 04:13:51;;;;;;;;;;;6.40;79.40;;;;;;5076629;28;19916;-65
2022/01/17 04:16:16;;;;;;;;;;;6.50;79.30;;;;;;5076284;28;19920;-65
2022/01/17 04:18:43;;;;;;;;;;;6.60;78.50;;;;;;5076669;28;19920;-65
2022/01/17 04:21:08;;;;;;;;;;;6.70;78.10;;;;;;5076364;28;20002;-65
2022/01/17 04:23:34;;;;;;;;;;;6.70;77.60;;;;;;5076210;28;19964;-65
2022/01/17 04:26:00;;;;;;;;;;;6.70;77.30;;;;;;5076646;28;19908;-67
2022/01/17 04:28:25;;;;;;;;;;;6.80;76.70;;;;;;5074933;28;19908;-66
2022/01/17 04:30:51;;;;;;;;;;;6.70;76.80;;;;;;5076451;28;19913;-64
2022/01/17 04:33:16;;;;;;;;;;;6.60;76.70;;;;;;5076111;28;20344;-66
2022/01/17 04:35:42;;;;;;;;;;;6.50;77.30;;;;;;5075984;28;19917;-65
2022/01/17 04:38:09;;;;;;;;;;;6.40;77.50;;;;;;5076089;28;19931;-64
2022/01/17 04:40:37;;;;;;;;;;;6.50;78.30;;;;;;5075995;28;20003;-65
2022/01/17 04:43:05;;;;;;;;;;;6.60;78.10;;;;;;5076145;28;20276;-65
2022/01/17 04:45:31;;;;;;;;;;;6.70;77.70;;;;;;5075921;28;19909;-64
2022/01/17 04:47:57;;;;;;;;;;;6.80;77.90;;;;;;5075805;28;19908;-64
2022/01/17 04:50:23;;;;;;;;;;;6.80;77.80;;;;;;5075887;28;19909;-66
2022/01/17 04:52:49;;;;;;;;;;;6.70;77.80;;;;;;5075851;28;19915;-65
2022/01/17 04:55:15;;;;;;;;;;;6.60;77.90;;;;;;5075170;28;19916;-64
2022/01/17 04:57:42;;;;;;;;;;;6.60;77.80;;;;;;5075981;28;19970;-65
2022/01/17 05:00:09;;;;;;;;;;;6.50;78.50;;;;;;5075875;28;20212;-65
2022/01/17 05:02:35;;;;;;;;;;;6.50;78.70;;;;;;5075850;28;19932;-65
2022/01/17 05:05:02;;;;;;;;;;;6.50;78.30;;;;;;5075432;28;20283;-66
2022/01/17 05:07:28;;;;;;;;;;;6.50;78.10;;;;;;5075484;28;20387;-66
2022/01/17 05:09:54;;;;;;;;;;;6.60;77.90;;;;;;5075773;28;19908;-65
2022/01/17 05:12:19;;;;;;;;;;;6.40;77.60;;;;;;5075617;28;19908;-64
2022/01/17 05:14:49;;;;;;;;;;;6.30;79.20;;;;;;5075282;28;19930;-65
2022/01/17 05:17:35;;;;;;;;;;;6.30;79.10;;;;;;5075291;28;20429;-66
2022/01/17 05:20:01;;;;;;;;;;;6.20;78.60;;;;;;5075399;28;20265;-65
2022/01/17 05:22:30;;;;;;;;;;;6.10;78.60;;;;;;5075183;28;20008;-65
2022/01/17 05:24:56;;;;;;;;;;;6.10;78.90;;;;;;5075440;28;19931;-65
2022/01/17 05:27:21;;;;;;;;;;;6.20;79.40;;;;;;5075260;28;20360;-65
2022/01/17 05:29:47;;;;;;;;;;;6.30;78.60;;;;;;5075100;28;19958;-65
2022/01/17 05:32:12;;;;;;;;;;;6.30;79.30;;;;;;5074975;28;20387;-65
2022/01/17 05:34:40;;;;;;;;;;;6.20;78.00;;;;;;5074855;28;19919;-65
2022/01/17 05:37:10;;;;;;;;;;;6.00;78.30;;;;;;5075072;28;19986;-65
2022/01/17 05:39:36;;;;;;;;;;;6.00;79.00;;;;;;5074820;28;19912;-64
2022/01/17 05:42:02;;;;;;;;;;;6.00;79.00;;;;;;5074889;28;19912;-65
2022/01/17 05:44:27;;;;;;;;;;;6.10;79.60;;;;;;5074650;28;19919;-64
2022/01/17 05:46:53;;;;;;;;;;;6.00;79.60;;;;;;5074631;28;20003;-65
2022/01/17 05:49:18;;;;;;;;;;;6.10;79.60;;;;;;5074799;28;19908;-65
2022/01/17 05:51:44;;;;;;;;;;;6.10;78.70;;;;;;5074621;28;19912;-65
2022/01/17 05:54:09;;;;;;;;;;;6.10;78.70;;;;;;5074333;28;19913;-65
2022/01/17 05:56:35;;;;;;;;;;;5.80;77.80;;;;;;5074444;28;19925;-65
2022/01/17 05:59:01;;;;;;;;;;;5.80;78.80;;;;;;5074374;28;19912;-65
2022/01/17 06:01:26;;;;;;;;;;;5.80;79.80;;;;;;5074713;28;19912;-66
2022/01/17 06:03:52;;;;;;;;;;;5.90;79.60;;;;;;5074444;28;19909;-66
2022/01/17 06:06:18;;;;;;;;;;;5.90;78.70;;;;;;5073427;28;19909;-65
2022/01/17 06:08:43;;;;;;;;;;;6.10;78.50;;;;;;5074218;28;20361;-65
2022/01/17 06:11:09;;;;;;;;;;;6.30;77.00;;;;;;5074111;28;19909;-65
2022/01/17 06:13:35;;;;;;;;;;;6.50;75.50;;;;;;5074415;28;19916;-64
2022/01/17 06:16:00;;;;;;;;;;;6.60;74.50;;;;;;5074436;28;19916;-65
2022/01/17 06:18:26;;;;;;;;;;;6.60;74.30;;;;;;5074104;28;19919;-65
2022/01/17 06:20:51;;;;;;;;;;;6.60;73.50;;;;;;5074304;28;20363;-65
2022/01/17 06:23:17;;;;;;;;;;;6.80;73.20;;;;;;5074272;28;19991;-65
2022/01/17 06:25:42;;;;;;;;;;;6.80;72.30;;;;;;5074724;28;19958;-66
2022/01/17 06:28:08;;;;;;;;;;;6.70;72.70;;;;;;5087224;28;19909;-65
2022/01/17 06:30:34;;;;;;;;;;;6.50;73.40;;;;;;5074470;28;20330;-65
2022/01/17 06:32:59;;;;;;;;;;;6.30;74.70;;;;;;5073994;28;20265;-66
2022/01/17 06:35:25;;;;;;;;;;;6.40;74.90;;;;;;5073805;28;20322;-64
2022/01/17 06:37:51;;;;;;;;;;;6.50;73.90;;;;;;5074527;28;19909;-65
2022/01/17 06:40:18;;;;;;;;;;;6.80;72.40;;;;;;5073964;28;20276;-65
2022/01/17 06:42:44;;;;;;;;;;;6.90;71.40;;;;;;5073976;28;20365;-64
2022/01/17 06:45:11;;;;;;;;;;;6.70;71.60;;;;;;5073718;28;19914;-66
2022/01/17 06:47:37;;;;;;;;;;;6.40;72.70;;;;;;5073720;28;20007;-66
2022/01/17 06:50:04;;;;;;;;;;;6.30;73.40;;;;;;5073479;28;20324;-65
2022/01/17 06:52:31;;;;;;;;;;;6.20;74.10;;;;;;5073779;28;19915;-67
2022/01/17 06:54:56;;;;;;;;;;;6.20;73.80;;;;;;5073126;28;19909;-64
2022/01/17 06:57:23;;;;;;;;;;;6.40;73.20;;;;;;5073693;28;19915;-64
2022/01/17 06:59:49;;;;;;;;;;;6.50;72.60;;;;;;5073102;28;19970;-66
2022/01/17 07:02:14;;;;;;;;;;;6.30;74.20;;;;;;5072969;28;19915;-65
2022/01/17 07:04:40;;;;;;;;;;;6.10;75.20;;;;;;5073116;28;19909;-64
2022/01/17 07:07:06;;;;;;;;;;;6.20;74.60;;;;;;5071824;28;19912;-66
2022/01/17 07:09:32;;;;;;;;;;;6.20;74.40;;;;;;5073201;28;19915;-64
2022/01/17 07:11:59;;;;;;;;;;;6.10;75.10;;;;;;5072845;28;20356;-65
2022/01/17 07:14:27;;;;;;;;;;;6.00;75.00;;;;;;5073101;28;19908;-66
2022/01/17 07:16:53;;;;;;;;;;;6.00;75.40;;;;;;5072951;28;19924;-65
2022/01/17 07:19:19;;;;;;;;;;;6.10;75.50;;;;;;5072797;28;19915;-64
2022/01/17 07:21:44;;;;;;;;;;;6.30;75.70;;;;;;5072781;28;19915;-62
2022/01/17 07:24:10;;;;;;;;;;;6.60;75.00;;;;;;5072972;28;20347;-67
2022/01/17 07:26:36;;;;;;;;;;;6.70;73.90;;;;;;5072666;28;19920;-65
2022/01/17 07:29:05;;;;;;;;;;;6.60;72.60;;;;;;5073196;28;19908;-63
2022/01/17 07:31:31;;;;;;;;;;;6.80;73.50;;;;;;5072900;28;19912;-64
2022/01/17 07:33:57;;;;;;;;;;;7.10;72.30;;;;;;5072868;28;20372;-61
2022/01/17 07:36:25;;;;;;;;;;;7.10;71.40;;;;;;5073289;28;19917;-62
2022/01/17 07:38:51;;;;;;;;;;;7.30;71.30;;;;;;5073053;28;19908;-63
2022/01/17 07:41:16;;;;;;;;;;;7.00;71.70;;;;;;5072881;28;19913;-62
2022/01/17 07:43:42;;;;;;;;;;;7.00;71.90;;;;;;5072776;28;19908;-69
2022/01/17 07:46:19;;;;;;;;;;;7.40;73.00;;;;;;5072302;28;20285;-66
2022/01/17 07:49:09;;;;;;;;;;;7.40;70.60;;;;;;5072186;28;19912;-68
2022/01/17 07:51:36;;;;;;;;;;;7.30;71.30;;;;;;5072601;28;19962;-68
2022/01/17 07:54:03;;;;;;;;;;;7.20;71.20;;;;;;5072557;28;20371;-67
2022/01/17 07:56:30;;;;;;;;;;;7.30;71.30;;;;;;5072356;28;19917;-64
2022/01/17 07:58:55;;;;;;;;;;;7.40;71.30;;;;;;5072679;28;19965;-64
2022/01/17 08:01:21;;;;;;;;;;;7.40;70.90;;;;;;5072469;28;20006;-65
2022/01/17 08:03:46;;;;;;;;;;;7.50;70.80;;;;;;5072576;28;19912;-64
2022/01/17 08:06:12;;;;;;;;;;;7.50;71.10;;;;;;5072542;28;19909;-64
2022/01/17 08:08:38;;;;;;;;;;;7.60;71.10;;;;;;5072415;28;19909;-63
2022/01/17 08:11:04;;;;;;;;;;;7.70;70.70;;;;;;5072565;28;19915;-64
2022/01/17 08:13:29;;;;;;;;;;;7.80;69.90;;;;;;5072424;28;19908;-63
2022/01/17 08:15:55;;;;;;;;;;;7.60;69.80;;;;;;5072602;28;19916;-64
2022/01/17 08:18:22;;;;;;;;;;;7.70;70.70;;;;;;5073000;28;19915;-64
2022/01/17 08:20:47;;;;;;;;;;;7.80;70.50;;;;;;5073001;28;19999;-65
2022/01/17 08:23:13;;;;;;;;;;;7.80;69.80;;;;;;5071434;28;20379;-63
2022/01/17 08:25:39;;;;;;;;;;;8.10;69.40;;;;;;5072487;28;19995;-64
2022/01/17 08:28:04;;;;;;;;;;;8.20;69.50;;;;;;5072701;28;20288;-63
2022/01/17 08:30:31;;;;;;;;;;;8.30;69.20;;;;;;5086511;28;20339;-64
2022/01/17 08:32:57;;;;;;;;;;;8.40;69.70;;;;;;5096479;28;19927;-63
2022/01/17 08:35:23;;;;;;;;;;;8.50;69.40;;;;;;5096403;28;19916;-64
2022/01/17 08:37:49;;;;;;;;;;;8.80;68.40;;;;;;5096367;28;19961;-64
2022/01/17 08:40:15;;;;;;;;;;;9.00;67.20;;;;;;5096619;28;20276;-61
2022/01/17 08:42:40;;;;;;;;;;;9.10;66.90;;;;;;5096192;28;19908;-63
2022/01/17 08:45:08;;;;;;;;;;;9.30;67.10;;;;;;5094688;28;20500;-63
2022/01/17 08:47:33;;;;;;;;;;;9.50;67.10;;;;;;5096434;28;19961;-64
2022/01/17 08:49:59;;;;;;;;;;;9.40;67.30;;;;;;5096284;28;19908;-64
2022/01/17 08:52:25;;;;;;;;;;;9.50;67.10;;;;;;5086233;28;20348;-62
2022/01/17 08:54:50;;;;;;;;;;;9.50;67.00;;;;;;5096049;28;20257;-66
2022/01/17 08:57:17;;;;;;;;;;;9.60;67.40;;;;;;5087492;28;19928;-66
2022/01/17 08:59:43;;;;;;;;;;;9.60;67.20;;;;;;5090597;28;19973;-69
2022/01/17 09:02:09;;;;;;;;;;;9.80;67.40;;;;;;5096157;28;19948;-66
2022/01/17 09:04:40;;;;;;;;;;;9.80;67.40;;;;;;5082556;28;19943;-64
2022/01/17 09:07:06;;;;;;;;;;;9.90;67.50;;;;;;5105396;28;20284;-68
2022/01/17 09:09:32;;;;;;;;;;;9.80;67.40;;;;;;5095532;28;20001;-70
2022/01/17 09:11:58;;;;;;;;;;;9.80;67.80;;;;;;5075630;28;19976;-67
2022/01/17 09:14:23;;;;;;;;;;;9.70;69.30;;;;;;5075001;28;19931;-65
2022/01/17 09:16:49;;;;;;;;;;;9.80;69.60;;;;;;5077992;28;20287;-67
2022/01/17 09:19:14;;;;;;;;;;;9.90;69.50;;;;;;5075393;28;19999;-65
2022/01/17 09:21:41;;;;;;;;;;;10.00;69.90;;;;;;5075056;28;19927;-68
2022/01/17 09:24:07;;;;;;;;;;;10.10;70.30;;;;;;5075239;28;20016;-68
2022/01/17 09:26:32;;;;;;;;;;;10.30;70.50;;;;;;5082410;28;19988;-71
2022/01/17 09:28:58;;;;;;;;;;;10.40;69.90;;;;;;5089361;28;19919;-64
2022/01/17 09:31:23;;;;;;;;;;;10.50;69.50;;;;;;5080318;28;19994;-71
2022/01/17 09:33:49;;;;;;;;;;;10.40;69.00;;;;;;5086646;28;19920;-68
2022/01/17 09:36:15;;;;;;;;;;;10.60;68.80;;;;;;5087900;28;19916;-66
2022/01/17 09:38:40;;;;;;;;;;;10.40;67.30;;;;;;5095029;28;20317;-67
2022/01/17 09:41:06;;;;;;;;;;;10.20;67.70;;;;;;5095263;28;19919;-63
2022/01/17 09:43:33;;;;;;;;;;;10.40;67.80;;;;;;5094840;28;19973;-70
2022/01/17 09:45:59;;;;;;;;;;;10.30;67.80;;;;;;5085031;28;19953;-70
2022/01/17 09:48:34;;;;;;;;;;;10.30;67.50;;;;;;5091227;28;19908;-68
2022/01/17 09:51:15;;;;;;;;;;;9.90;68.70;;;;;;5105444;28;20016;-64
2022/01/17 09:53:41;;;;;;;;;;;9.80;69.00;;;;;;5094726;28;19908;-67
2022/01/17 09:56:07;;;;;;;;;;;10.00;69.00;;;;;;5093402;28;19959;-67
2022/01/17 09:58:35;;;;;;;;;;;10.20;69.00;;;;;;5094725;28;19915;-67
2022/01/17 10:01:01;;;;;;;;;;;10.40;68.40;;;;;;5094916;28;19916;-69
2022/01/17 10:03:26;;;;;;;;;;;10.60;68.40;;;;;;5093298;28;19916;-65
2022/01/17 10:05:52;;;;;;;;;;;10.60;67.00;;;;;;5099739;28;19908;-66
2022/01/17 10:08:18;;;;;;;;;;;10.50;67.00;;;;;;5098410;28;19915;-66
2022/01/17 10:10:57;;;;;;;;;;;10.60;67.30;;;;;;5082676;28;19908;-68
2022/01/17 10:13:24;;;;;;;;;;;10.60;68.10;;;;;;5090718;28;20003;-65
2022/01/17 10:15:59;;;;;;;;;;;10.70;68.00;;;;;;5091206;28;20375;-67
2022/01/17 10:18:36;;;;;;;;;;;10.80;68.10;;;;;;5083354;28;19909;-67
2022/01/17 10:21:08;;;;;;;;;;;10.60;67.90;;;;;;5093244;28;19915;-68
2022/01/17 10:37:11;;;;;;;;;;;10.30;69.20;;;;;;5073117;28;20364;-62
2022/01/17 10:39:50;;;;;;;;;;;10.50;68.50;;;;;;5075558;28;19917;-61
2022/01/17 10:42:29;;;;;;;;;;;10.80;67.60;;;;;;5075234;28;19912;-66
2022/01/17 10:45:01;;;;;;;;;;;10.90;67.20;;;;;;5087211;28;20253;-64
2022/01/17 10:47:27;;;;;;;;;;;11.10;66.80;;;;;;5095404;28;20089;-61
2022/01/17 10:49:55;;;;;;;;;;;11.10;66.50;;;;;;5094014;28;19908;-65
2022/01/17 10:52:32;;;;;;;;;;;11.30;66.40;;;;;;5093137;28;20329;-63
2022/01/17 10:54:58;;;;;;;;;;;11.30;66.10;;;;;;5093727;28;20271;-65
2022/01/17 10:57:24;;;;;;;;;;;11.20;65.90;;;;;;5093640;28;20283;-64
2022/01/17 10:59:51;;;;;;;;;;;11.30;66.00;;;;;;5093986;28;19922;-63
2022/01/17 11:02:17;;;;;;;;;;;11.20;65.20;;;;;;5093992;28;20401;-63
2022/01/17 11:04:43;;;;;;;;;;;11.40;65.60;;;;;;5094445;28;19908;-65
2022/01/17 11:07:09;;;;;;;;;;;11.60;65.20;;;;;;5094022;28;19908;-71
2022/01/17 11:09:47;;;;;;;;;;;11.80;65.30;;;;;;5092828;28;19958;-66
2022/01/17 11:12:13;;;;;;;;;;;11.50;66.50;;;;;;5099417;28;20353;-64
2022/01/17 11:14:39;;;;;;;;;;;11.50;66.90;;;;;;5110539;28;19954;-63
2022/01/17 11:17:10;;;;;;;;;;;11.10;67.60;;;;;;5109143;28;19961;-63
2022/01/17 11:22:20;;;;;;;;;;;11.80;66.30;;;;;;5092505;28;19915;-69
2022/01/17 11:24:46;;;;;;;;;;;12.00;63.90;;;;;;5080869;28;19909;-64
2022/01/17 11:27:11;;;;;;;;;;;11.90;63.90;;;;;;5089681;28;20295;-63
2022/01/17 11:29:37;;;;;;;;;;;11.80;64.70;;;;;;5077038;28;19999;-69
2022/01/17 11:32:03;;;;;;;;;;;11.80;65.00;;;;;;5073312;28;20272;-63
2022/01/17 11:34:29;;;;;;;;;;;11.30;65.80;;;;;;5073375;28;19920;-65
2022/01/17 11:36:55;;;;;;;;;;;11.00;67.10;;;;;;5073292;28;19995;-67
2022/01/17 11:39:20;;;;;;;;;;;11.00;67.60;;;;;;5073399;28;19972;-65
2022/01/17 11:41:49;;;;;;;;;;;10.70;68.20;;;;;;5073177;28;19919;-63
2022/01/17 11:44:15;;;;;;;;;;;10.50;69.10;;;;;;5073022;28;19909;-74
2022/01/17 11:46:52;;;;;;;;;;;10.20;70.40;;;;;;5073185;28;20375;-66
2022/01/17 11:49:24;;;;;;;;;;;10.10;71.40;;;;;;5073297;28;19908;-70
2022/01/17 11:51:50;;;;;;;;;;;10.00;71.60;;;;;;5073045;28;19908;-68
2022/01/17 11:54:20;;;;;;;;;;;9.90;72.50;;;;;;5073129;28;19999;-73
2022/01/17 11:56:53;;;;;;;;;;;9.90;72.60;;;;;;5073215;28;20299;-65
2022/01/17 11:59:25;;;;;;;;;;;10.10;72.20;;;;;;5073241;28;19921;-68
2022/01/17 12:02:11;;;;;;;;;;;10.50;71.80;;;;;;5073004;28;20340;-65
2022/01/17 12:04:36;;;;;;;;;;;10.70;70.70;;;;;;5067451;28;19966;-63
2022/01/17 12:07:02;;;;;;;;;;;11.00;69.90;;;;;;5076896;28;19909;-62
2022/01/17 12:09:29;;;;;;;;;;;11.30;68.40;;;;;;5076709;28;19984;-64
2022/01/17 12:12:04;;;;;;;;;;;11.50;67.60;;;;;;5077015;28;19913;-64
2022/01/17 12:14:32;;;;;;;;;;;11.70;67.10;;;;;;5076864;28;19955;-65
2022/01/17 12:17:17;;;;;;;;;;;11.90;65.70;;;;;;5076708;28;19917;-71
2022/01/17 12:20:01;;;;;;;;;;;11.70;64.50;;;;;;5076019;28;19955;-73
2022/01/17 12:22:26;;;;;;;;;;;11.50;65.70;;;;;;5078586;28;19916;-65
2022/01/17 12:24:52;;;;;;;;;;;11.80;66.00;;;;;;5095198;28;20449;-63
2022/01/17 12:27:17;;;;;;;;;;;12.00;65.20;;;;;;5096613;28;19909;-66
2022/01/17 12:30:06;;;;;;;;;;;12.10;64.80;;;;;;5096567;28;19953;-62
2022/01/17 12:32:35;;;;;;;;;;;12.20;64.50;;;;;;5090469;28;19916;-66
2022/01/17 12:35:04;;;;;;;;;;;12.30;64.40;;;;;;5096430;28;19919;-67
2022/01/17 12:37:32;;;;;;;;;;;12.40;64.10;;;;;;5096187;28;20319;-68
2022/01/17 12:40:16;;;;;;;;;;;12.30;63.90;;;;;;5096100;28;20283;-62
2022/01/17 12:43:00;;;;;;;;;;;12.10;64.80;;;;;;5096131;28;19915;-61
2022/01/17 12:45:26;;;;;;;;;;;11.70;66.20;;;;;;5096213;28;19912;-64
2022/01/17 12:47:52;;;;;;;;;;;11.90;66.40;;;;;;5096230;28;20061;-62
2022/01/17 12:50:18;;;;;;;;;;;12.10;65.90;;;;;;5095891;28;19972;-61
2022/01/17 12:52:44;;;;;;;;;;;12.20;65.20;;;;;;5096077;28;19915;-66
2022/01/17 12:55:10;;;;;;;;;;;11.90;65.50;;;;;;5095736;28;20339;-64
2022/01/17 12:57:45;;;;;;;;;;;11.70;66.30;;;;;;5078948;28;19917;-63
2022/01/17 13:00:18;;;;;;;;;;;11.60;67.10;;;;;;5075529;28;19909;-66
2022/01/17 13:02:47;;;;;;;;;;;11.80;66.00;;;;;;5075698;28;19916;-65
2022/01/17 13:05:14;;;;;;;;;;;12.00;65.70;;;;;;5075163;28;20382;-67
2022/01/17 13:07:42;;;;;;;;;;;12.20;65.10;;;;;;5075512;28;20399;-64
2022/01/17 13:10:09;;;;;;;;;;;12.30;64.50;;;;;;5075560;28;19909;-65
2022/01/17 13:12:34;;;;;;;;;;;12.40;64.70;;;;;;5073838;28;20008;-67
2022/01/17 13:15:00;;;;;;;;;;;12.30;64.20;;;;;;5074888;28;19948;-66
2022/01/17 13:17:25;;;;;;;;;;;12.50;64.00;;;;;;5074665;28;19978;-63
2022/01/17 13:19:51;;;;;;;;;;;12.60;64.00;;;;;;5074607;28;19909;-63
2022/01/17 13:22:18;;;;;;;;;;;12.60;64.00;;;;;;5074344;28;19913;-63
2022/01/17 13:24:53;;;;;;;;;;;12.60;63.90;;;;;;5074388;28;19909;-65
2022/01/17 13:27:19;;;;;;;;;;;12.60;64.40;;;;;;5074733;28;19908;-62
2022/01/17 13:29:45;;;;;;;;;;;12.70;64.60;;;;;;5077447;28;20046;-65
2022/01/17 13:32:12;;;;;;;;;;;12.70;65.00;;;;;;5074173;28;19920;-64
2022/01/17 13:34:39;;;;;;;;;;;12.70;65.10;;;;;;5074511;28;20372;-65
2022/01/17 13:37:05;;;;;;;;;;;12.60;64.40;;;;;;5079824;28;19998;-65
2022/01/17 13:39:31;;;;;;;;;;;12.50;65.10;;;;;;5074474;28;19909;-62
2022/01/17 13:42:01;;;;;;;;;;;12.50;65.00;;;;;;5075331;28;19919;-63
2022/01/17 13:44:35;;;;;;;;;;;12.50;65.20;;;;;;5076509;28;19998;-63
2022/01/17 13:47:04;;;;;;;;;;;12.50;65.00;;;;;;5077224;28;19908;-64
2022/01/17 13:49:31;;;;;;;;;;;12.50;65.10;;;;;;5078032;28;19913;-63
2022/01/17 13:51:57;;;;;;;;;;;12.30;66.30;;;;;;5073962;28;19916;-63
2022/01/17 13:54:30;;;;;;;;;;;12.10;68.00;;;;;;5072600;28;19931;-63
2022/01/17 13:56:57;;;;;;;;;;;11.60;69.50;;;;;;5073766;28;20015;-62
2022/01/17 13:59:26;;;;;;;;;;;11.20;71.00;;;;;;5073848;28;19934;-64
2022/01/17 14:01:52;;;;;;;;;;;11.10;71.40;;;;;;5074189;28;19909;-62
2022/01/17 14:04:19;;;;;;;;;;;10.90;71.00;;;;;;5076590;28;19965;-62
2022/01/17 14:06:45;;;;;;;;;;;10.80;71.20;;;;;;5073604;28;19940;-64
2022/01/17 14:09:10;;;;;;;;;;;10.80;71.10;;;;;;5073778;28;19951;-66
2022/01/17 14:11:40;;;;;;;;;;;10.90;70.80;;;;;;5073328;28;19940;-62
2022/01/17 14:14:11;;;;;;;;;;;11.00;70.20;;;;;;5073558;28;19915;-64
2022/01/17 14:16:40;;;;;;;;;;;11.10;69.70;;;;;;5073572;28;19925;-62
2022/01/17 14:19:07;;;;;;;;;;;11.00;69.90;;;;;;5074310;28;20276;-63
2022/01/17 14:21:37;;;;;;;;;;;11.00;70.20;;;;;;5076652;28;19912;-62
2022/01/17 14:24:09;;;;;;;;;;;10.90;70.40;;;;;;5094268;28;20308;-65
2022/01/17 14:26:35;;;;;;;;;;;10.90;70.50;;;;;;5093514;28;19909;-62
2022/01/17 14:29:01;;;;;;;;;;;10.90;70.60;;;;;;5094137;28;19908;-65
2022/01/17 14:31:31;;;;;;;;;;;10.80;70.80;;;;;;5094176;28;19912;-63
2022/01/17 14:34:09;;;;;;;;;;;10.70;70.90;;;;;;5093508;28;19934;-62
2022/01/17 14:36:35;;;;;;;;;;;10.70;71.00;;;;;;5093937;28;20268;-67
2022/01/17 14:39:04;;;;;;;;;;;10.70;71.10;;;;;;5093784;28;19915;-66
2022/01/17 14:41:35;;;;;;;;;;;10.60;71.40;;;;;;5094034;28;19917;-66
2022/01/17 14:44:07;;;;;;;;;;;10.50;71.40;;;;;;5093795;28;19908;-65
2022/01/17 14:46:33;;;;;;;;;;;10.40;72.20;;;;;;5094027;28;19908;-65
2022/01/17 14:48:58;;;;;;;;;;;10.30;72.40;;;;;;5094406;28;20407;-65
2022/01/17 14:51:27;;;;;;;;;;;10.20;72.80;;;;;;5094174;28;19947;-65
2022/01/17 14:53:57;;;;;;;;;;;10.00;73.00;;;;;;5093889;28;19909;-65